createdAt,value
2019-03-18T00:00:33.673Z,41.40
2019-03-18T00:03:03.963Z,40.63
2019-03-18T00:05:34.260Z,39.20
2019-03-18T00:08:07.034Z,43.77
2019-03-18T00:10:37.588Z,43.53
2019-03-18T00:13:07.864Z,50.33
2019-03-18T00:15:39.323Z,52.07
2019-03-18T00:18:09.662Z,47.90
2019-03-18T00:20:39.904Z,54.33
2019-03-18T00:23:10.174Z,55.10
2019-03-18T00:25:40.524Z,51.83
2019-03-18T00:28:10.770Z,55.50
2019-03-18T00:30:41.022Z,52.70
2019-03-18T00:33:11.321Z,60.83
2019-03-18T00:35:41.614Z,64.27
2019-03-18T00:38:11.761Z,57.10
2019-03-18T00:40:42.068Z,67.70
2019-03-18T00:43:12.344Z,65.43
2019-03-18T00:45:42.545Z,64.93
2019-03-18T00:48:13.946Z,67.97
2019-03-18T00:50:44.236Z,62.63
2019-03-18T00:53:22.414Z,63.67
2019-03-18T00:55:52.643Z,60.60
2019-03-18T00:58:22.954Z,66.10
2019-03-18T01:00:55.250Z,65.07
2019-03-18T01:03:27.372Z,70.93
2019-03-18T01:06:00.503Z,70.67
2019-03-18T01:08:30.923Z,75.83
2019-03-18T01:11:01.950Z,75.33
2019-03-18T01:13:33.391Z,77.67
2019-03-18T01:16:03.842Z,76.23
2019-03-18T01:18:34.178Z,72.93
2019-03-18T01:21:04.454Z,86.17
2019-03-18T01:23:34.802Z,85.50
2019-03-18T01:26:05.126Z,85.37
2019-03-18T01:28:41.108Z,78.17
2019-03-18T01:31:13.365Z,47.93
2019-03-18T01:33:45.036Z,42.77
2019-03-18T01:36:15.408Z,16.17
2019-03-18T01:38:47.864Z,7.27
2019-03-18T01:41:19.968Z,5.00
2019-03-18T01:43:51.545Z,5.37
2019-03-18T01:46:23.466Z,4.43
2019-03-18T01:48:53.815Z,4.17
2019-03-18T01:51:24.047Z,1.30
2019-03-18T01:53:54.280Z,1.40
2019-03-18T01:56:24.463Z,1.83
2019-03-18T01:58:54.702Z,3.07
2019-03-18T02:01:25.094Z,3.13
2019-03-18T02:03:55.318Z,1.00
2019-03-18T02:06:25.575Z,1.93
2019-03-18T02:08:55.920Z,4.37
2019-03-18T02:11:26.214Z,2.93
2019-03-18T02:13:56.544Z,1.73
2019-03-18T02:16:27.010Z,2.63
2019-03-18T02:18:57.252Z,1.50
2019-03-18T02:21:27.495Z,1.30
2019-03-18T02:23:57.819Z,3.10
2019-03-18T02:26:28.110Z,1.53
2019-03-18T02:28:58.354Z,2.30
2019-03-18T02:31:28.664Z,0.97
2019-03-18T02:33:58.932Z,2.10
2019-03-18T02:36:29.130Z,1.70
2019-03-18T02:38:59.403Z,2.73
2019-03-18T02:41:29.696Z,0.87
2019-03-18T02:44:00.008Z,0.50
2019-03-18T02:46:30.381Z,0.93
2019-03-18T02:49:00.624Z,0.30
2019-03-18T02:51:30.979Z,0.93
2019-03-18T02:54:01.271Z,1.17
2019-03-18T02:56:31.677Z,0.77
2019-03-18T02:59:01.932Z,0.50
2019-03-18T03:01:32.254Z,0.40
2019-03-18T03:04:02.508Z,1.07
2019-03-18T03:06:32.715Z,1.40
2019-03-18T03:09:03.175Z,0.83
2019-03-18T03:11:34.557Z,2.10
2019-03-18T03:14:04.924Z,1.17
2019-03-18T03:16:35.389Z,0.97
2019-03-18T03:19:05.652Z,1.30
2019-03-18T03:21:35.934Z,1.27
2019-03-18T03:24:06.263Z,1.90
2019-03-18T03:26:36.547Z,1.27
2019-03-18T03:29:06.807Z,2.80
2019-03-18T03:31:37.110Z,1.63
2019-03-18T03:34:12.943Z,0.70
2019-03-18T03:36:39.376Z,2.37
2019-03-18T03:39:09.836Z,1.67
2019-03-18T03:41:40.148Z,0.97
2019-03-18T03:44:10.433Z,1.33
2019-03-18T03:46:43.624Z,2.53
2019-03-18T03:49:12.633Z,1.87
2019-03-18T03:51:42.947Z,1.53
2019-03-18T03:54:13.306Z,2.63
2019-03-18T03:56:43.592Z,2.10
2019-03-18T03:59:13.862Z,2.50
2019-03-18T04:01:44.220Z,1.33
2019-03-18T04:04:14.423Z,4.17
2019-03-18T04:06:44.768Z,1.40
2019-03-18T04:09:15.153Z,0.93
2019-03-18T04:11:45.435Z,1.17
2019-03-18T04:14:15.798Z,0.90
2019-03-18T04:17:00.728Z,2.37
2019-03-18T04:19:17.984Z,1.30
2019-03-18T04:21:50.621Z,1.33
2019-03-18T04:24:20.180Z,1.43
2019-03-18T04:26:50.407Z,4.03
2019-03-18T04:29:23.066Z,1.40
2019-03-18T04:31:53.314Z,1.97
2019-03-18T04:34:23.571Z,0.93
2019-03-18T04:36:53.946Z,1.57
2019-03-18T04:39:24.359Z,1.70
2019-03-18T04:41:54.623Z,1.70
2019-03-18T04:44:24.923Z,2.37
2019-03-18T04:46:55.293Z,1.93
2019-03-18T04:49:25.711Z,2.40
2019-03-18T04:51:55.955Z,5.53
2019-03-18T04:54:26.222Z,3.00
2019-03-18T04:56:57.465Z,5.37
2019-03-18T04:59:27.648Z,3.13
2019-03-18T05:01:57.849Z,2.70
2019-03-18T05:04:28.231Z,4.37
2019-03-18T05:06:59.204Z,2.83
2019-03-18T05:09:29.735Z,3.63
2019-03-18T05:12:00.051Z,3.50
2019-03-18T05:14:30.300Z,2.37
2019-03-18T05:17:00.795Z,3.17
2019-03-18T05:19:31.000Z,2.67
2019-03-18T05:22:01.307Z,3.70
2019-03-18T05:24:31.550Z,2.60
2019-03-18T05:27:01.769Z,3.23
2019-03-18T05:29:32.479Z,3.37
2019-03-18T05:32:04.955Z,2.63
2019-03-18T05:34:34.801Z,2.60
2019-03-18T05:37:06.233Z,1.63
2019-03-18T05:39:36.461Z,2.00
2019-03-18T05:42:06.720Z,1.40
2019-03-18T05:44:36.988Z,1.17
2019-03-18T05:47:07.594Z,3.13
2019-03-18T05:49:37.860Z,1.30
2019-03-18T05:52:08.128Z,1.13
2019-03-18T05:54:38.467Z,1.43
2019-03-18T05:57:08.745Z,1.10
2019-03-18T05:59:39.207Z,1.97
2019-03-18T06:02:09.476Z,1.63
2019-03-18T06:04:39.721Z,2.60
2019-03-18T06:07:09.999Z,3.23
2019-03-18T06:09:50.063Z,2.93
2019-03-18T06:12:20.459Z,2.73
2019-03-18T06:14:50.699Z,1.90
2019-03-18T06:17:21.086Z,2.67
2019-03-18T06:19:51.753Z,4.57
2019-03-18T06:22:22.018Z,1.53
2019-03-18T06:24:52.386Z,2.87
2019-03-18T06:27:22.699Z,0.70
2019-03-18T06:29:52.991Z,0.73
2019-03-18T06:32:23.317Z,1.83
2019-03-18T06:34:53.555Z,2.57
2019-03-18T06:37:23.815Z,2.40
2019-03-18T06:39:54.042Z,1.27
2019-03-18T06:42:24.352Z,0.80
2019-03-18T06:44:54.872Z,1.23
2019-03-18T06:47:25.115Z,0.80
2019-03-18T06:49:55.426Z,1.13
2019-03-18T06:52:25.695Z,1.77
2019-03-18T06:54:56.164Z,1.20
2019-03-18T06:57:26.471Z,1.13
2019-03-18T06:59:56.735Z,1.73
2019-03-18T07:02:27.096Z,2.50
2019-03-18T07:04:57.367Z,2.20
2019-03-18T07:07:27.596Z,1.73
2019-03-18T07:09:57.773Z,1.00
2019-03-18T07:12:28.040Z,1.40
2019-03-18T07:14:58.312Z,1.20
2019-03-18T07:17:28.667Z,1.37
2019-03-18T07:19:58.972Z,1.40
2019-03-18T07:22:29.238Z,0.90
2019-03-18T07:24:59.387Z,2.10
2019-03-18T07:27:29.652Z,3.13
2019-03-18T07:29:59.895Z,1.60
2019-03-18T07:32:30.053Z,2.40
2019-03-18T07:35:01.216Z,0.63
2019-03-18T07:37:31.449Z,1.50
2019-03-18T07:40:01.843Z,2.60
2019-03-18T07:42:31.860Z,2.20
2019-03-18T07:45:01.832Z,2.80
2019-03-18T07:47:32.092Z,1.17
2019-03-18T07:50:02.487Z,1.57
2019-03-18T07:52:41.943Z,0.50
2019-03-18T07:55:12.913Z,1.00
2019-03-18T07:57:43.090Z,1.40
2019-03-18T08:00:13.342Z,0.80
2019-03-18T08:02:43.615Z,1.90
2019-03-18T08:05:15.174Z,1.83
2019-03-18T08:07:45.424Z,0.73
2019-03-18T08:10:15.935Z,0.67
2019-03-18T08:12:52.058Z,0.60
2019-03-18T08:15:22.394Z,0.70
2019-03-18T08:17:52.666Z,1.93
2019-03-18T08:20:22.956Z,0.83
2019-03-18T08:22:53.366Z,0.93
2019-03-18T08:25:23.603Z,0.93
2019-03-18T08:27:53.866Z,0.70
2019-03-18T08:30:24.146Z,2.00
2019-03-18T08:32:54.552Z,0.90
2019-03-18T08:35:24.807Z,1.80
2019-03-18T08:37:55.101Z,0.93
2019-03-18T08:40:25.030Z,0.80
2019-03-18T08:42:55.251Z,1.73
2019-03-18T08:45:25.566Z,0.80
2019-03-18T08:48:01.621Z,1.03
2019-03-18T08:50:31.922Z,1.97
2019-03-18T08:53:02.419Z,1.13
2019-03-18T08:55:32.339Z,1.90
2019-03-18T08:58:02.677Z,0.57
2019-03-18T09:00:32.858Z,0.30
2019-03-18T09:03:03.104Z,1.57
2019-03-18T09:05:33.398Z,0.47
2019-03-18T09:08:03.874Z,0.40
2019-03-18T09:10:34.138Z,1.03
2019-03-18T09:13:04.301Z,0.83
2019-03-18T09:15:51.364Z,0.87
2019-03-18T09:18:24.209Z,1.20
2019-03-18T09:20:56.678Z,1.10
2019-03-18T09:23:29.184Z,1.10
2019-03-18T09:26:00.103Z,0.70
2019-03-18T09:28:30.375Z,1.33
2019-03-18T09:31:00.561Z,0.63
2019-03-18T09:33:30.943Z,2.50
2019-03-18T09:36:01.358Z,3.43
2019-03-18T09:38:31.450Z,0.83
2019-03-18T09:41:01.778Z,1.03
2019-03-18T09:43:32.038Z,1.27
2019-03-18T09:46:02.455Z,0.77
2019-03-18T09:48:32.845Z,1.50
2019-03-18T09:51:03.075Z,1.17
2019-03-18T09:53:33.331Z,0.67
2019-03-18T09:56:03.611Z,6.77
2019-03-18T09:58:33.965Z,4.73
2019-03-18T10:01:04.442Z,1.43
2019-03-18T10:03:34.832Z,2.97
2019-03-18T10:06:05.033Z,1.17
2019-03-18T10:08:35.272Z,2.30
2019-03-18T10:11:05.715Z,0.80
2019-03-18T10:13:36.322Z,0.80
2019-03-18T10:16:06.693Z,0.90
2019-03-18T10:18:37.050Z,8.03
2019-03-18T10:21:07.307Z,0.90
2019-03-18T10:23:37.560Z,1.80
2019-03-18T10:26:08.141Z,1.07
2019-03-18T10:28:38.330Z,1.53
2019-03-18T10:31:08.613Z,0.70
2019-03-18T10:33:38.970Z,1.17
2019-03-18T10:36:09.239Z,1.87
2019-03-18T10:38:39.463Z,1.33
2019-03-18T10:41:09.745Z,1.40
2019-03-18T10:43:40.076Z,1.13
2019-03-18T10:46:10.269Z,0.80
2019-03-18T10:48:40.794Z,0.90
2019-03-18T10:51:11.086Z,2.53
2019-03-18T10:53:41.271Z,1.00
2019-03-18T10:56:11.623Z,1.53
2019-03-18T10:58:41.880Z,0.73
2019-03-18T11:01:12.133Z,0.50
2019-03-18T11:03:42.473Z,0.70
2019-03-18T11:06:12.729Z,1.00
2019-03-18T11:08:43.036Z,0.77
2019-03-18T11:11:13.298Z,0.70
2019-03-18T11:13:43.643Z,1.20
2019-03-18T11:16:14.118Z,0.50
2019-03-18T11:18:44.503Z,0.67
2019-03-18T11:21:14.757Z,1.17
2019-03-18T11:23:44.987Z,0.70
2019-03-18T11:26:15.190Z,0.47
2019-03-18T11:28:45.415Z,0.90
2019-03-18T11:31:15.595Z,1.80
2019-03-18T11:33:45.916Z,1.13
2019-03-18T11:36:16.182Z,1.00
2019-03-18T11:38:46.410Z,0.77
2019-03-18T11:41:17.587Z,0.80
2019-03-18T11:43:48.015Z,0.67
2019-03-18T11:46:19.080Z,0.80
2019-03-18T11:48:52.853Z,1.27
2019-03-18T11:51:23.140Z,0.80
2019-03-18T11:53:53.403Z,2.47
2019-03-18T11:56:23.762Z,0.80
2019-03-18T11:58:54.041Z,0.60
2019-03-18T12:01:24.378Z,0.97
2019-03-18T12:03:54.698Z,0.50
2019-03-18T12:06:24.874Z,0.57
2019-03-18T12:08:55.103Z,0.43
2019-03-18T12:11:25.393Z,2.87
2019-03-18T12:13:55.664Z,0.77
2019-03-18T12:16:26.006Z,0.50
2019-03-18T12:18:56.352Z,0.60
2019-03-18T12:21:26.652Z,0.50
2019-03-18T12:23:56.934Z,0.80
2019-03-18T12:26:27.208Z,0.67
2019-03-18T12:28:57.479Z,0.98
2019-03-18T12:31:27.842Z,1.07
2019-03-18T12:33:58.065Z,1.35
2019-03-18T12:36:28.462Z,0.60
2019-03-18T12:38:58.836Z,0.85
2019-03-18T12:41:29.290Z,0.70
2019-03-18T12:43:59.403Z,0.60
2019-03-18T12:46:29.554Z,0.70
2019-03-18T12:48:59.859Z,1.40
2019-03-18T12:51:29.981Z,0.95
2019-03-18T12:54:00.324Z,1.60
2019-03-18T12:56:30.735Z,0.85
2019-03-18T12:59:00.991Z,0.85
2019-03-18T13:01:31.319Z,2.40
2019-03-18T13:04:01.690Z,0.60
2019-03-18T13:06:33.511Z,2.27
2019-03-18T13:09:04.261Z,1.02
2019-03-18T13:11:34.586Z,1.70
2019-03-18T13:14:04.890Z,0.95
2019-03-18T13:16:35.206Z,0.53
2019-03-18T13:19:05.487Z,1.05
2019-03-18T13:21:35.950Z,1.25
2019-03-18T13:24:06.250Z,2.10
2019-03-18T13:26:36.628Z,2.12
2019-03-18T13:29:06.919Z,16.45
2019-03-18T13:31:37.214Z,19.40
2019-03-18T13:34:07.497Z,1.10
2019-03-18T13:36:37.801Z,8.75
2019-03-18T13:39:09.618Z,10.08
2019-03-18T13:41:39.991Z,6.72
2019-03-18T13:44:10.269Z,2.77
2019-03-18T13:46:40.618Z,1.75
2019-03-18T13:49:10.998Z,1.60
2019-03-18T13:51:41.270Z,2.50
2019-03-18T13:54:11.565Z,2.12
2019-03-18T13:56:41.939Z,1.57
2019-03-18T13:59:12.337Z,1.50
2019-03-18T14:01:42.663Z,2.35
2019-03-18T14:04:13.123Z,1.12
2019-03-18T14:06:43.391Z,1.82
2019-03-18T14:09:13.694Z,1.27
2019-03-18T14:11:44.013Z,1.67
2019-03-18T14:14:14.386Z,3.90
2019-03-18T14:16:44.662Z,1.70
2019-03-18T14:19:15.039Z,7.12
2019-03-18T14:21:45.414Z,4.95
2019-03-18T14:24:15.769Z,1.87
2019-03-18T14:26:46.155Z,1.10
2019-03-18T14:29:16.533Z,1.10
2019-03-18T14:31:48.480Z,1.17
2019-03-18T14:34:18.842Z,1.15
2019-03-18T14:36:49.063Z,1.10
2019-03-18T14:39:19.315Z,1.07
2019-03-18T14:41:49.622Z,1.20
2019-03-18T14:44:19.824Z,1.25
2019-03-18T14:46:50.078Z,1.17
2019-03-18T14:49:20.410Z,1.85
2019-03-18T14:51:51.095Z,1.27
2019-03-18T14:54:21.366Z,1.35
2019-03-18T14:56:51.612Z,1.05
2019-03-18T14:59:21.904Z,1.20
2019-03-18T15:01:52.079Z,1.32
2019-03-18T15:04:22.302Z,0.90
2019-03-18T15:09:32.760Z,1.62
2019-03-18T15:12:03.252Z,2.90
2019-03-18T15:14:33.427Z,1.50
2019-03-18T15:17:03.753Z,1.45
2019-03-18T15:19:34.228Z,1.55
2019-03-18T15:22:04.665Z,1.30
2019-03-18T15:24:35.006Z,2.50
2019-03-18T15:27:05.274Z,2.37
2019-03-18T15:29:35.895Z,2.17
2019-03-18T15:32:06.470Z,1.35
2019-03-18T15:34:37.927Z,4.65
2019-03-18T15:37:10.233Z,2.22
2019-03-18T15:39:40.654Z,2.42
2019-03-18T15:42:10.818Z,1.57
2019-03-18T15:44:41.841Z,1.72
2019-03-18T15:47:12.052Z,2.20
2019-03-18T15:49:43.496Z,1.45
2019-03-18T15:52:13.928Z,1.70
2019-03-18T15:54:53.675Z,2.98
2019-03-18T15:57:29.268Z,2.27
2019-03-18T15:59:50.022Z,2.43
2019-03-18T16:02:20.523Z,3.10
2019-03-18T16:04:50.931Z,3.00
2019-03-18T16:07:21.119Z,3.25
2019-03-18T16:09:51.430Z,5.03
2019-03-18T16:12:21.659Z,4.90
2019-03-18T16:14:51.898Z,6.55
2019-03-18T16:17:22.274Z,4.83
2019-03-18T16:19:52.506Z,5.20
2019-03-18T16:22:23.866Z,6.57
2019-03-18T16:24:54.523Z,4.30
2019-03-18T16:27:24.807Z,8.77
2019-03-18T16:29:55.056Z,5.23
2019-03-18T16:32:25.330Z,11.47
2019-03-18T16:34:55.576Z,31.70
2019-03-18T16:37:25.797Z,81.43
2019-03-18T16:39:55.993Z,16.50
2019-03-18T16:42:26.297Z,20.50
2019-03-18T16:44:56.534Z,4.17
2019-03-18T16:47:26.822Z,3.60
2019-03-18T16:49:57.170Z,3.93
2019-03-18T16:52:35.766Z,4.13
2019-03-18T16:54:59.474Z,3.40
2019-03-18T16:57:29.699Z,3.43
2019-03-18T16:59:59.952Z,8.57
2019-03-18T17:02:30.249Z,4.70
2019-03-18T17:05:00.536Z,6.23
2019-03-18T17:07:30.783Z,19.90
2019-03-18T17:10:01.150Z,13.70
2019-03-18T17:12:31.366Z,10.03
2019-03-18T17:15:01.730Z,9.50
2019-03-18T17:17:32.052Z,4.50
2019-03-18T17:20:02.481Z,14.13
2019-03-18T17:22:32.763Z,25.50
2019-03-18T17:25:02.958Z,11.87
2019-03-18T17:27:33.268Z,7.97
2019-03-18T17:30:03.586Z,3.70
2019-03-18T17:32:33.902Z,5.43
2019-03-18T17:35:04.294Z,5.10
2019-03-18T17:37:34.476Z,5.60
2019-03-18T17:40:04.827Z,6.50
2019-03-18T17:42:35.085Z,5.87
2019-03-18T17:45:05.519Z,5.37
2019-03-18T17:47:35.809Z,4.50
2019-03-18T17:50:06.390Z,4.70
2019-03-18T17:52:36.625Z,4.13
2019-03-18T17:55:07.296Z,3.50
2019-03-18T17:57:37.659Z,3.30
2019-03-18T18:00:09.051Z,4.63
2019-03-18T18:02:39.287Z,5.43
2019-03-18T18:05:10.103Z,5.00
2019-03-18T18:07:40.567Z,5.03
2019-03-18T18:10:11.155Z,4.03
2019-03-18T18:12:41.277Z,3.80
2019-03-18T18:15:11.504Z,3.50
2019-03-18T18:17:41.862Z,4.10
2019-03-18T18:20:12.346Z,4.27
2019-03-18T18:22:42.610Z,5.47
2019-03-18T18:25:13.010Z,4.87
2019-03-18T18:27:43.204Z,5.70
2019-03-18T18:30:13.726Z,3.50
2019-03-18T18:32:44.111Z,3.53
2019-03-18T18:35:14.465Z,3.23
2019-03-18T18:37:44.792Z,3.20
2019-03-18T18:40:15.164Z,4.50
2019-03-18T18:42:45.485Z,5.47
2019-03-18T18:45:16.671Z,3.50
2019-03-18T18:47:47.152Z,4.33
2019-03-18T18:50:20.754Z,4.77
2019-03-18T18:52:53.376Z,5.83
2019-03-18T18:55:23.776Z,5.00
2019-03-18T18:57:54.135Z,4.43
2019-03-18T19:00:24.448Z,7.33
2019-03-18T19:02:54.705Z,4.57
2019-03-18T19:05:24.900Z,3.03
2019-03-18T19:07:57.479Z,2.53
2019-03-18T19:10:27.022Z,2.67
2019-03-18T19:12:57.367Z,2.50
2019-03-18T19:15:28.100Z,3.23
2019-03-18T19:17:58.387Z,8.33
2019-03-18T19:20:28.611Z,5.30
2019-03-18T19:22:58.827Z,2.40
2019-03-18T19:25:29.093Z,3.63
2019-03-18T19:27:59.518Z,2.40
2019-03-18T19:30:30.144Z,2.07
2019-03-18T19:33:00.395Z,1.77
2019-03-18T19:35:30.657Z,2.07
2019-03-18T19:38:01.200Z,2.30
2019-03-18T19:40:31.527Z,1.30
2019-03-18T19:43:01.776Z,1.20
2019-03-18T19:45:32.076Z,1.10
2019-03-18T19:48:02.368Z,3.77
2019-03-18T19:50:32.597Z,3.93
2019-03-18T19:53:02.848Z,3.37
2019-03-18T19:55:33.114Z,3.00
2019-03-18T19:58:03.352Z,1.97
2019-03-18T20:00:33.635Z,2.17
2019-03-18T20:03:03.883Z,1.60
2019-03-18T20:05:34.099Z,2.63
2019-03-18T20:08:04.650Z,1.20
2019-03-18T20:10:34.874Z,5.10
2019-03-18T20:13:05.240Z,2.87
2019-03-18T20:15:35.543Z,6.13
2019-03-18T20:18:05.962Z,2.13
2019-03-18T20:20:36.263Z,5.17
2019-03-18T20:23:06.651Z,1.90
2019-03-18T20:25:37.060Z,10.63
2019-03-18T20:28:07.311Z,14.63
2019-03-18T20:30:37.675Z,12.57
2019-03-18T20:33:07.995Z,11.30
2019-03-18T20:35:38.215Z,3.80
2019-03-18T20:38:08.452Z,2.13
2019-03-18T20:40:38.747Z,1.20
2019-03-18T20:43:09.047Z,2.50
2019-03-18T20:45:39.458Z,1.50
2019-03-18T20:48:09.826Z,2.23
2019-03-18T20:50:40.010Z,2.63
2019-03-18T20:53:10.267Z,3.57
2019-03-18T20:55:40.490Z,3.83
2019-03-18T20:58:10.718Z,3.30
2019-03-18T21:00:40.951Z,3.33
2019-03-18T21:03:11.277Z,2.77
2019-03-18T21:05:41.621Z,2.60
2019-03-18T21:08:11.967Z,1.07
2019-03-18T21:10:42.329Z,1.67
2019-03-18T21:13:12.551Z,1.40
2019-03-18T21:15:42.746Z,0.97
2019-03-18T21:18:12.995Z,4.60
2019-03-18T21:20:43.255Z,2.20
2019-03-18T21:23:13.555Z,1.57
2019-03-18T21:25:43.762Z,3.70
2019-03-18T21:28:14.083Z,1.10
2019-03-18T21:30:44.363Z,1.43
2019-03-18T21:33:14.610Z,1.60
2019-03-18T21:35:45.069Z,3.93
2019-03-18T21:38:15.219Z,1.53
2019-03-18T21:40:45.571Z,4.50
2019-03-18T21:43:15.795Z,4.10
2019-03-18T21:45:46.105Z,3.10
2019-03-18T21:48:16.455Z,3.97
2019-03-18T21:50:46.829Z,3.87
2019-03-18T21:53:17.144Z,2.37
2019-03-18T21:55:47.395Z,5.43
2019-03-18T21:58:17.653Z,4.13
2019-03-18T22:00:48.021Z,2.50
2019-03-18T22:03:18.375Z,3.30
2019-03-18T22:05:48.581Z,3.40
2019-03-18T22:08:18.941Z,2.53
2019-03-18T22:10:49.271Z,1.47
2019-03-18T22:13:19.540Z,1.83
2019-03-18T22:15:49.831Z,1.67
2019-03-18T22:18:20.135Z,1.57
2019-03-18T22:20:50.535Z,1.20
2019-03-18T22:23:20.828Z,1.27
2019-03-18T22:25:51.094Z,1.60
2019-03-18T22:28:21.331Z,2.90
2019-03-18T22:30:51.715Z,3.40
2019-03-18T22:33:22.022Z,2.60
2019-03-18T22:35:52.279Z,2.40
2019-03-18T22:38:22.771Z,4.57
2019-03-18T22:40:53.051Z,2.90
2019-03-18T22:43:23.252Z,2.43
2019-03-18T22:45:53.521Z,2.70
2019-03-18T22:48:23.796Z,2.87
2019-03-18T22:50:54.040Z,4.03
2019-03-18T22:53:24.726Z,2.83
2019-03-18T22:55:55.069Z,3.80
2019-03-18T22:58:25.300Z,1.80
2019-03-18T23:01:26.917Z,1.97
2019-03-18T23:03:57.260Z,1.73
2019-03-18T23:06:27.519Z,2.20
2019-03-18T23:08:57.795Z,4.53
2019-03-18T23:11:28.111Z,2.67
2019-03-18T23:13:58.362Z,2.80
2019-03-18T23:16:28.658Z,4.37
2019-03-18T23:18:59.036Z,1.77
2019-03-18T23:21:29.298Z,2.10
2019-03-18T23:23:59.617Z,2.57
2019-03-18T23:26:29.898Z,1.60
2019-03-18T23:29:00.223Z,3.17
2019-03-18T23:31:30.696Z,2.63
2019-03-18T23:34:00.960Z,3.13
2019-03-18T23:36:31.154Z,1.93
2019-03-18T23:39:01.576Z,1.83
2019-03-18T23:41:31.812Z,1.83
2019-03-18T23:44:02.047Z,3.23
2019-03-18T23:46:32.339Z,2.40
2019-03-18T23:49:02.783Z,3.57
2019-03-18T23:51:33.077Z,2.57
2019-03-18T23:54:03.372Z,2.57
2019-03-18T23:56:33.657Z,4.17
2019-03-18T23:59:03.925Z,2.83
